createdAt,value
2023-07-07T00:01:27.084Z,80.66
2023-07-07T00:03:53.964Z,80.55
2023-07-07T00:06:20.732Z,80.64
2023-07-07T00:08:47.638Z,80.92
2023-07-07T00:11:14.054Z,81.04
2023-07-07T00:13:40.623Z,81.47
2023-07-07T00:16:07.219Z,81.37
2023-07-07T00:18:33.995Z,81.23
2023-07-07T00:21:01.693Z,81.70
2023-07-07T00:23:29.336Z,82.17
2023-07-07T00:26:08.362Z,81.62
2023-07-07T00:28:35.204Z,82.34
2023-07-07T00:31:02.693Z,82.63
2023-07-07T00:33:29.385Z,82.73
2023-07-07T00:35:56.170Z,82.89
2023-07-07T00:38:23.281Z,83.28
2023-07-07T00:40:53.104Z,83.08
2023-07-07T00:43:21.752Z,83.56
2023-07-07T00:45:48.337Z,83.93
2023-07-07T00:48:22.067Z,84.21
2023-07-07T00:50:55.744Z,83.74
2023-07-07T00:53:22.876Z,84.57
2023-07-07T00:56:01.453Z,84.75
2023-07-07T00:58:30.168Z,84.84
2023-07-07T01:01:03.774Z,84.97
2023-07-07T01:03:41.299Z,85.02
2023-07-07T01:06:11.679Z,84.65
2023-07-07T01:08:40.644Z,85.41
2023-07-07T01:11:07.255Z,85.43
2023-07-07T01:13:33.987Z,85.08
2023-07-07T01:16:27.078Z,84.75
2023-07-07T01:19:00.081Z,85.39
2023-07-07T01:21:53.174Z,85.10
2023-07-07T01:24:52.298Z,85.52
2023-07-07T01:27:31.916Z,86.07
2023-07-07T01:30:04.552Z,85.64
2023-07-07T01:32:32.935Z,85.38
2023-07-07T01:35:08.544Z,86.53
2023-07-07T01:37:35.041Z,85.86
2023-07-07T01:40:02.546Z,86.18
2023-07-07T01:43:00.674Z,85.71
2023-07-07T01:45:34.780Z,85.65
2023-07-07T01:48:15.264Z,85.16
2023-07-07T01:50:42.406Z,85.73
2023-07-07T01:53:14.985Z,86.59
2023-07-07T01:55:48.802Z,86.03
2023-07-07T01:58:16.464Z,86.78
2023-07-07T02:00:45.057Z,86.29
2023-07-07T02:03:12.181Z,87.17
2023-07-07T02:05:39.329Z,87.06
2023-07-07T02:08:06.119Z,86.91
2023-07-07T02:10:33.002Z,87.04
2023-07-07T02:12:59.914Z,87.91
2023-07-07T02:15:26.514Z,87.76
2023-07-07T02:17:53.533Z,87.48
2023-07-07T02:20:21.154Z,87.48
2023-07-07T02:22:50.175Z,87.33
2023-07-07T02:25:16.674Z,87.61
2023-07-07T02:27:43.969Z,87.74
2023-07-07T02:30:10.791Z,87.96
2023-07-07T02:32:37.337Z,88.14
2023-07-07T02:35:04.847Z,88.57
2023-07-07T02:37:31.405Z,88.30
2023-07-07T02:40:01.094Z,88.31
2023-07-07T02:42:27.766Z,88.51
2023-07-07T02:44:54.155Z,87.95
2023-07-07T02:47:20.695Z,88.39
2023-07-07T02:49:47.445Z,89.17
2023-07-07T02:52:14.223Z,89.01
2023-07-07T02:54:41.111Z,88.19
2023-07-07T02:57:08.604Z,88.56
2023-07-07T02:59:35.116Z,88.37
2023-07-07T03:02:02.047Z,89.24
2023-07-07T03:04:28.739Z,89.32
2023-07-07T03:06:55.773Z,89.20
2023-07-07T03:09:22.681Z,89.74
2023-07-07T03:11:49.276Z,89.46
2023-07-07T03:14:19.276Z,89.32
2023-07-07T03:16:46.137Z,89.90
2023-07-07T03:19:13.212Z,89.31
2023-07-07T03:21:41.037Z,90.38
2023-07-07T03:24:07.854Z,89.74
2023-07-07T03:26:34.654Z,89.93
2023-07-07T03:29:01.218Z,90.68
2023-07-07T03:31:31.468Z,90.50
2023-07-07T03:34:01.538Z,90.38
2023-07-07T03:36:31.335Z,90.46
2023-07-07T03:38:58.413Z,91.04
2023-07-07T03:41:26.326Z,89.84
2023-07-07T03:43:53.238Z,90.48
2023-07-07T03:46:22.399Z,91.11
2023-07-07T03:48:50.654Z,90.71
2023-07-07T03:51:19.475Z,90.68
2023-07-07T03:53:46.681Z,90.40
2023-07-07T03:56:13.832Z,90.52
2023-07-07T03:58:40.703Z,90.59
2023-07-07T04:01:10.027Z,90.81
2023-07-07T04:03:37.754Z,91.11
2023-07-07T04:06:04.824Z,91.07
2023-07-07T04:08:31.880Z,91.06
2023-07-07T04:11:05.752Z,91.23
2023-07-07T04:13:38.633Z,91.06
2023-07-07T04:16:25.366Z,90.41
2023-07-07T04:18:55.797Z,90.61
2023-07-07T04:21:27.042Z,90.68
2023-07-07T04:23:55.403Z,90.15
2023-07-07T04:26:24.124Z,90.04
2023-07-07T04:28:52.352Z,89.95
2023-07-07T04:31:19.696Z,88.93
2023-07-07T04:33:46.544Z,88.06
2023-07-07T04:36:13.973Z,87.93
2023-07-07T04:38:40.814Z,87.60
2023-07-07T04:41:11.916Z,87.55
2023-07-07T04:43:48.118Z,86.66
2023-07-07T04:46:21.735Z,85.92
2023-07-07T04:48:49.440Z,86.36
2023-07-07T04:51:16.230Z,85.98
2023-07-07T04:53:43.036Z,85.35
2023-07-07T04:56:16.472Z,85.44
2023-07-07T04:58:45.311Z,85.44
2023-07-07T05:01:18.309Z,84.19
2023-07-07T05:03:46.473Z,84.09
2023-07-07T05:06:13.992Z,83.58
2023-07-07T05:08:42.551Z,82.11
2023-07-07T05:11:14.397Z,80.70
2023-07-07T05:13:41.644Z,81.17
2023-07-07T05:16:10.184Z,79.78
2023-07-07T05:18:37.017Z,78.76
2023-07-07T05:21:06.780Z,78.78
2023-07-07T05:23:34.873Z,79.29
2023-07-07T05:26:01.597Z,79.84
2023-07-07T05:28:28.451Z,77.99
2023-07-07T05:30:55.611Z,76.74
2023-07-07T05:33:23.433Z,78.33
2023-07-07T05:35:51.865Z,78.21
2023-07-07T05:38:19.711Z,76.90
2023-07-07T05:40:47.032Z,76.07
2023-07-07T05:43:15.062Z,75.00
2023-07-07T05:45:41.930Z,73.54
2023-07-07T05:48:10.287Z,73.19
2023-07-07T05:50:37.396Z,72.47
2023-07-07T05:53:03.873Z,72.13
2023-07-07T05:55:32.985Z,70.34
2023-07-07T05:58:01.030Z,67.75
2023-07-07T06:00:28.700Z,68.82
2023-07-07T06:02:58.990Z,66.47
2023-07-07T06:05:27.062Z,66.57
2023-07-07T06:07:55.864Z,68.19
2023-07-07T06:10:22.489Z,64.88
2023-07-07T06:12:49.969Z,64.07
2023-07-07T06:15:16.745Z,65.96
2023-07-07T06:17:43.254Z,66.92
2023-07-07T06:20:10.199Z,63.37
2023-07-07T06:22:36.750Z,63.43
2023-07-07T06:25:04.520Z,61.84
2023-07-07T06:27:32.141Z,61.07
2023-07-07T06:29:59.772Z,61.93
2023-07-07T06:32:26.319Z,63.39
2023-07-07T06:34:52.968Z,62.38
2023-07-07T06:37:19.411Z,62.31
2023-07-07T06:39:46.153Z,60.20
2023-07-07T06:42:13.135Z,60.14
2023-07-07T06:44:40.569Z,60.28
2023-07-07T06:47:12.381Z,60.02
2023-07-07T06:49:38.861Z,59.50
2023-07-07T06:52:05.917Z,58.39
2023-07-07T06:54:32.384Z,56.57
2023-07-07T06:56:58.998Z,57.54
2023-07-07T06:59:26.904Z,58.10
2023-07-07T07:01:53.384Z,58.61
2023-07-07T07:04:20.229Z,54.37
2023-07-07T07:06:47.088Z,52.47
2023-07-07T07:09:13.671Z,52.76
2023-07-07T07:11:40.522Z,52.02
2023-07-07T07:14:07.393Z,52.40
2023-07-07T07:16:34.071Z,51.66
2023-07-07T07:19:00.937Z,50.19
2023-07-07T07:21:27.447Z,52.41
2023-07-07T07:23:54.449Z,52.05
2023-07-07T07:26:21.037Z,52.05
2023-07-07T07:28:47.892Z,47.81
2023-07-07T07:31:14.477Z,49.84
2023-07-07T07:33:41.361Z,48.57
2023-07-07T07:36:08.259Z,47.78
2023-07-07T07:38:34.996Z,50.03
2023-07-07T07:41:01.557Z,50.29
2023-07-07T07:43:28.253Z,47.64
2023-07-07T07:45:55.829Z,47.69
2023-07-07T07:48:22.411Z,46.07
2023-07-07T07:50:49.057Z,45.20
2023-07-07T07:53:16.076Z,45.93
2023-07-07T07:55:42.799Z,48.10
2023-07-07T07:58:10.100Z,45.63
2023-07-07T08:00:37.226Z,45.78
2023-07-07T08:03:03.869Z,44.84
2023-07-07T08:05:30.246Z,43.61
2023-07-07T08:07:56.842Z,45.85
2023-07-07T08:10:23.427Z,42.45
2023-07-07T08:12:49.966Z,44.09
2023-07-07T08:15:17.202Z,43.28
2023-07-07T08:17:43.859Z,41.62
2023-07-07T08:20:19.184Z,42.60
2023-07-07T08:22:46.263Z,42.33
2023-07-07T08:25:13.133Z,43.24
2023-07-07T08:27:39.818Z,43.20
2023-07-07T08:30:07.615Z,43.41
2023-07-07T08:32:34.474Z,43.83
2023-07-07T08:35:01.026Z,41.52
2023-07-07T08:37:28.326Z,40.20
2023-07-07T08:39:55.352Z,41.38
2023-07-07T08:42:37.310Z,37.59
2023-07-07T08:45:12.891Z,37.76
2023-07-07T08:48:00.698Z,38.31
2023-07-07T08:50:33.946Z,38.32
2023-07-07T08:53:38.772Z,38.03
2023-07-07T08:56:25.275Z,36.93
2023-07-07T08:59:04.001Z,37.41
2023-07-07T09:01:47.596Z,36.06
2023-07-07T09:04:38.486Z,36.57
2023-07-07T09:07:32.379Z,35.29
2023-07-07T09:10:00.355Z,35.49
2023-07-07T09:12:49.852Z,36.55
2023-07-07T09:15:23.184Z,37.04
2023-07-07T09:18:09.182Z,35.01
2023-07-07T09:20:37.396Z,34.33
2023-07-07T09:23:17.741Z,32.99
2023-07-07T09:26:17.333Z,33.19
2023-07-07T09:28:48.009Z,32.94
2023-07-07T09:31:23.901Z,33.29
2023-07-07T09:33:51.549Z,33.59
2023-07-07T09:36:28.271Z,31.89
2023-07-07T09:39:27.179Z,30.60
2023-07-07T09:42:22.691Z,31.53
2023-07-07T09:45:19.707Z,30.63
2023-07-07T09:48:08.360Z,32.19
2023-07-07T09:50:46.103Z,30.85
2023-07-07T09:53:24.581Z,31.57
2023-07-07T09:55:54.164Z,32.15
2023-07-07T09:58:23.765Z,31.63
2023-07-07T10:00:56.087Z,29.88
2023-07-07T10:03:49.361Z,31.15
2023-07-07T10:06:38.006Z,29.17
2023-07-07T10:09:05.128Z,29.10
2023-07-07T10:12:09.901Z,30.67
2023-07-07T10:14:29.163Z,30.42
2023-07-07T10:17:11.278Z,31.54
2023-07-07T10:19:54.225Z,27.62
2023-07-07T10:22:22.717Z,28.86
2023-07-07T10:24:49.595Z,27.87
2023-07-07T10:27:27.911Z,27.83
2023-07-07T10:30:01.324Z,27.98
2023-07-07T10:32:28.406Z,27.19
2023-07-07T10:34:58.969Z,29.16
2023-07-07T10:37:30.109Z,27.67
2023-07-07T10:39:59.276Z,28.19
2023-07-07T10:42:28.089Z,27.96
2023-07-07T10:44:57.410Z,29.03
2023-07-07T10:47:37.752Z,27.67
2023-07-07T10:50:12.741Z,27.96
2023-07-07T10:56:10.370Z,29.14
2023-07-07T10:59:10.865Z,26.31
2023-07-07T11:01:47.569Z,29.48
2023-07-07T11:04:58.552Z,26.89
2023-07-07T11:07:43.825Z,26.89
2023-07-07T11:10:38.108Z,26.97
2023-07-07T11:13:44.168Z,28.40
2023-07-07T11:16:13.554Z,25.91
2023-07-07T11:19:14.145Z,26.91
2023-07-07T11:22:01.967Z,26.23
2023-07-07T11:24:56.421Z,25.08
2023-07-07T11:27:34.469Z,28.16
2023-07-07T11:30:10.536Z,26.79
2023-07-07T11:33:01.901Z,26.10
2023-07-07T11:35:59.311Z,26.14
2023-07-07T11:39:07.556Z,27.07
2023-07-07T11:41:45.069Z,25.84
2023-07-07T11:44:34.689Z,25.08
2023-07-07T11:47:23.147Z,26.82
2023-07-07T11:49:59.734Z,27.31
2023-07-07T11:52:41.459Z,24.26
2023-07-07T11:55:28.564Z,25.98
2023-07-07T11:58:04.260Z,26.14
2023-07-07T12:00:42.598Z,24.45
2023-07-07T12:03:37.748Z,25.27
2023-07-07T12:06:17.483Z,25.99
2023-07-07T12:08:54.924Z,23.93
2023-07-07T12:11:23.548Z,25.10
2023-07-07T12:14:22.946Z,25.22
2023-07-07T12:16:52.832Z,26.67
2023-07-07T12:19:42.692Z,26.22
2023-07-07T12:22:29.746Z,25.63
2023-07-07T12:25:06.705Z,24.56
2023-07-07T12:27:39.585Z,24.48
2023-07-07T12:30:13.226Z,27.02
2023-07-07T12:32:40.576Z,24.09
2023-07-07T12:35:15.870Z,25.16
2023-07-07T12:37:42.980Z,24.54
2023-07-07T12:40:09.599Z,24.69
2023-07-07T12:42:38.842Z,24.75
2023-07-07T12:45:32.693Z,24.85
2023-07-07T12:48:05.998Z,25.58
2023-07-07T12:50:37.464Z,24.35
2023-07-07T12:53:10.346Z,24.23
2023-07-07T12:55:39.974Z,23.51
2023-07-07T12:58:06.453Z,22.58
2023-07-07T13:00:40.677Z,25.26
2023-07-07T13:03:10.140Z,22.81
2023-07-07T13:05:51.334Z,24.72
2023-07-07T13:08:37.172Z,25.19
2023-07-07T13:11:08.432Z,22.95
2023-07-07T13:13:38.196Z,22.64
2023-07-07T13:16:10.197Z,21.57
2023-07-07T13:18:36.890Z,23.31
2023-07-07T13:21:05.283Z,22.15
2023-07-07T13:23:38.805Z,21.16
2023-07-07T13:26:05.460Z,21.00
2023-07-07T13:28:32.192Z,21.55
2023-07-07T13:30:59.900Z,21.28
2023-07-07T13:33:29.337Z,22.16
2023-07-07T13:35:59.145Z,22.59
2023-07-07T13:38:29.970Z,22.69
2023-07-07T13:40:57.249Z,22.40
2023-07-07T13:43:46.444Z,23.13
2023-07-07T13:46:19.349Z,23.21
2023-07-07T13:48:50.674Z,22.54
2023-07-07T13:51:25.952Z,22.09
2023-07-07T13:53:52.803Z,23.40
2023-07-07T13:56:19.853Z,21.84
2023-07-07T13:58:48.969Z,21.51
2023-07-07T14:01:28.068Z,22.75
2023-07-07T14:03:58.313Z,22.61
2023-07-07T14:06:25.478Z,22.02
2023-07-07T14:08:53.033Z,22.16
2023-07-07T14:11:27.805Z,22.35
2023-07-07T14:14:02.312Z,23.75
2023-07-07T14:16:33.276Z,21.24
2023-07-07T14:19:02.560Z,22.98
2023-07-07T14:21:32.850Z,22.63
2023-07-07T14:24:00.535Z,23.21
2023-07-07T14:26:27.886Z,21.98
2023-07-07T14:28:57.189Z,23.11
2023-07-07T14:31:25.087Z,22.77
2023-07-07T14:33:58.693Z,23.17
2023-07-07T14:36:51.469Z,21.42
2023-07-07T14:39:23.837Z,23.34
2023-07-07T14:41:50.668Z,23.32
2023-07-07T14:44:51.877Z,22.58
2023-07-07T14:47:24.087Z,23.60
2023-07-07T14:49:51.560Z,23.45
2023-07-07T14:52:42.333Z,24.00
2023-07-07T14:55:19.198Z,23.67
2023-07-07T14:57:51.593Z,24.30
2023-07-07T15:01:04.487Z,22.51
2023-07-07T15:03:31.910Z,22.86
2023-07-07T15:06:07.632Z,23.02
2023-07-07T15:08:37.448Z,23.65
2023-07-07T15:11:07.481Z,22.29
2023-07-07T15:13:34.574Z,22.36
2023-07-07T15:16:04.823Z,23.09
2023-07-07T15:18:31.509Z,22.87
2023-07-07T15:20:57.977Z,22.48
2023-07-07T15:23:24.541Z,25.30
2023-07-07T15:25:51.490Z,23.70
2023-07-07T15:28:20.576Z,24.10
2023-07-07T15:30:47.355Z,22.38
2023-07-07T15:33:16.102Z,22.74
2023-07-07T15:35:42.596Z,23.61
2023-07-07T15:38:52.381Z,23.52
2023-07-07T15:41:24.656Z,24.29
2023-07-07T15:43:51.704Z,23.95
2023-07-07T15:46:27.618Z,23.90
2023-07-07T15:48:54.558Z,25.27
2023-07-07T15:51:35.684Z,23.15
2023-07-07T15:54:04.818Z,24.43
2023-07-07T15:56:34.199Z,23.20
2023-07-07T15:59:01.974Z,24.13
2023-07-07T16:01:29.224Z,25.08
2023-07-07T16:03:56.268Z,23.76
2023-07-07T16:06:23.236Z,24.48
2023-07-07T16:08:49.761Z,23.67
2023-07-07T16:11:23.487Z,25.19
2023-07-07T16:13:53.544Z,26.35
2023-07-07T16:16:24.020Z,24.78
2023-07-07T16:18:50.607Z,25.63
2023-07-07T16:21:21.335Z,25.92
2023-07-07T16:23:49.516Z,24.08
2023-07-07T16:26:30.107Z,25.38
2023-07-07T16:28:57.675Z,23.90
2023-07-07T16:31:27.008Z,26.28
2023-07-07T16:33:53.676Z,24.85
2023-07-07T16:36:22.378Z,24.95
2023-07-07T16:38:50.786Z,24.91
2023-07-07T16:41:21.619Z,25.03
2023-07-07T16:43:50.221Z,25.55
2023-07-07T16:46:20.478Z,25.35
2023-07-07T16:48:50.033Z,26.00
2023-07-07T16:51:21.547Z,25.13
2023-07-07T16:53:48.105Z,25.69
2023-07-07T16:56:27.209Z,25.10
2023-07-07T16:58:54.376Z,27.26
2023-07-07T17:01:21.735Z,25.93
2023-07-07T17:03:48.632Z,26.38
2023-07-07T17:06:21.508Z,27.13
2023-07-07T17:08:48.723Z,25.55
2023-07-07T17:11:15.441Z,26.02
2023-07-07T17:13:42.247Z,27.64
2023-07-07T17:16:21.836Z,27.78
2023-07-07T17:18:52.062Z,28.10
2023-07-07T17:21:19.681Z,26.53
2023-07-07T17:23:47.492Z,27.65
2023-07-07T17:26:26.415Z,28.36
2023-07-07T17:28:54.198Z,27.49
2023-07-07T17:31:25.526Z,28.14
2023-07-07T17:33:54.052Z,29.55
2023-07-07T17:36:27.643Z,29.40
2023-07-07T17:38:56.134Z,29.84
2023-07-07T17:41:27.375Z,29.76
2023-07-07T17:43:54.382Z,29.45
2023-07-07T17:46:35.995Z,29.20
2023-07-07T17:49:11.098Z,29.02
2023-07-07T17:51:37.632Z,29.47
2023-07-07T17:54:04.354Z,30.06
2023-07-07T17:56:32.733Z,30.28
2023-07-07T17:59:01.244Z,30.67
2023-07-07T18:01:28.734Z,30.27
2023-07-07T18:03:55.397Z,31.31
2023-07-07T18:06:29.084Z,31.70
2023-07-07T18:08:56.707Z,31.90
2023-07-07T18:11:28.879Z,32.37
2023-07-07T18:13:56.059Z,32.81
2023-07-07T18:16:33.635Z,32.20
2023-07-07T18:19:31.230Z,32.99
2023-07-07T18:21:55.243Z,33.07
2023-07-07T18:24:24.306Z,32.92
2023-07-07T18:26:51.349Z,33.94
2023-07-07T18:29:21.711Z,34.43
2023-07-07T18:31:48.708Z,34.78
2023-07-07T18:34:15.504Z,34.94
2023-07-07T18:39:28.397Z,35.68
2023-07-07T18:41:56.181Z,36.29
2023-07-07T18:44:24.152Z,37.22
2023-07-07T18:46:52.632Z,36.54
2023-07-07T18:49:20.629Z,37.65
2023-07-07T18:51:47.642Z,38.44
2023-07-07T18:54:17.422Z,38.75
2023-07-07T18:56:45.972Z,38.26
2023-07-07T18:59:18.149Z,38.92
2023-07-07T19:01:45.040Z,40.82
2023-07-07T19:04:11.660Z,42.25
2023-07-07T19:06:38.893Z,41.40
2023-07-07T19:09:16.363Z,42.32
2023-07-07T19:11:43.168Z,41.64
2023-07-07T19:14:09.815Z,41.70
2023-07-07T19:16:36.553Z,44.77
2023-07-07T19:19:03.629Z,43.45
2023-07-07T19:21:33.050Z,44.56
2023-07-07T19:24:00.936Z,45.58
2023-07-07T19:26:27.537Z,44.14
2023-07-07T19:28:54.903Z,44.34
2023-07-07T19:31:23.348Z,44.08
2023-07-07T19:33:50.489Z,45.19
2023-07-07T19:36:25.597Z,46.02
2023-07-07T19:38:53.516Z,44.96
2023-07-07T19:41:22.380Z,45.00
2023-07-07T19:43:50.717Z,44.74
2023-07-07T19:46:24.654Z,45.61
2023-07-07T19:48:52.476Z,45.56
2023-07-07T19:51:20.788Z,46.78
2023-07-07T19:53:48.272Z,47.53
2023-07-07T19:56:16.281Z,47.59
2023-07-07T19:58:44.612Z,49.35
2023-07-07T20:01:19.582Z,49.07
2023-07-07T20:03:47.429Z,48.22
2023-07-07T20:06:26.421Z,48.81
2023-07-07T20:08:54.439Z,48.10
2023-07-07T20:11:26.956Z,50.63
2023-07-07T20:13:56.130Z,50.10
2023-07-07T20:16:41.845Z,50.42
2023-07-07T20:19:17.350Z,50.77
2023-07-07T20:21:44.402Z,52.64
2023-07-07T20:24:19.706Z,52.98
2023-07-07T20:26:48.150Z,52.09
2023-07-07T20:29:16.717Z,52.42
2023-07-07T20:31:43.682Z,54.01
2023-07-07T20:34:11.714Z,54.06
2023-07-07T20:36:38.804Z,52.98
2023-07-07T20:39:23.520Z,52.42
2023-07-07T20:41:50.259Z,54.71
2023-07-07T20:44:17.104Z,55.41
2023-07-07T20:46:46.018Z,56.45
2023-07-07T20:49:20.408Z,57.01
2023-07-07T20:51:47.838Z,56.77
2023-07-07T20:54:14.388Z,56.21
2023-07-07T20:56:41.365Z,56.86
2023-07-07T20:59:25.883Z,55.84
2023-07-07T21:01:55.330Z,56.05
2023-07-07T21:04:21.935Z,56.15
2023-07-07T21:06:48.572Z,57.62
2023-07-07T21:09:16.504Z,56.80
2023-07-07T21:11:43.004Z,57.96
2023-07-07T21:14:09.523Z,57.34
2023-07-07T21:16:39.726Z,59.37
2023-07-07T21:19:11.753Z,58.64
2023-07-07T21:21:39.588Z,58.13
2023-07-07T21:24:06.714Z,58.69
2023-07-07T21:26:33.311Z,58.21
2023-07-07T21:29:00.559Z,59.00
2023-07-07T21:31:31.637Z,59.05
2023-07-07T21:33:58.651Z,58.97
2023-07-07T21:36:44.867Z,59.52
2023-07-07T21:39:28.155Z,61.86
2023-07-07T21:42:10.989Z,60.74
2023-07-07T21:44:40.320Z,61.01
2023-07-07T21:47:06.988Z,61.30
2023-07-07T21:49:33.400Z,61.16
2023-07-07T21:52:03.839Z,62.06
2023-07-07T21:54:31.432Z,61.13
2023-07-07T21:56:58.582Z,61.38
2023-07-07T21:59:25.304Z,62.07
2023-07-07T22:01:52.703Z,62.54
2023-07-07T22:04:19.843Z,63.23
2023-07-07T22:06:48.573Z,62.70
2023-07-07T22:09:17.980Z,63.68
2023-07-07T22:11:45.357Z,64.13
2023-07-07T22:14:12.332Z,64.47
2023-07-07T22:16:39.027Z,65.31
2023-07-07T22:19:05.641Z,64.86
2023-07-07T22:21:32.169Z,64.80
2023-07-07T22:23:58.662Z,63.84
2023-07-07T22:26:26.007Z,65.04
2023-07-07T22:28:52.705Z,66.20
2023-07-07T22:31:20.498Z,66.59
2023-07-07T22:33:47.811Z,65.32
2023-07-07T22:36:20.348Z,64.41
2023-07-07T22:38:47.652Z,65.25
2023-07-07T22:41:23.638Z,66.01
2023-07-07T22:43:51.643Z,65.69
2023-07-07T22:46:43.260Z,65.85
2023-07-07T22:49:14.148Z,66.14
2023-07-07T22:51:43.379Z,66.85
2023-07-07T22:54:09.985Z,68.36
2023-07-07T22:56:37.667Z,67.61
2023-07-07T22:59:18.617Z,66.82
2023-07-07T23:01:45.138Z,67.09
2023-07-07T23:04:12.105Z,67.15
2023-07-07T23:06:38.948Z,68.74
2023-07-07T23:09:34.569Z,68.52
2023-07-07T23:12:01.401Z,68.58
2023-07-07T23:14:27.855Z,68.21
2023-07-07T23:16:56.327Z,68.51
2023-07-07T23:19:24.000Z,69.30
2023-07-07T23:21:50.448Z,69.20
2023-07-07T23:24:18.804Z,69.12
2023-07-07T23:26:45.433Z,69.57
2023-07-07T23:29:13.145Z,70.50
2023-07-07T23:31:39.807Z,69.93
2023-07-07T23:34:06.294Z,69.63
2023-07-07T23:36:34.207Z,70.22
2023-07-07T23:39:01.953Z,71.47
2023-07-07T23:41:29.440Z,69.89
2023-07-07T23:43:56.320Z,69.55
2023-07-07T23:46:23.372Z,70.18
2023-07-07T23:48:50.235Z,70.29
2023-07-07T23:51:16.806Z,70.00
2023-07-07T23:53:45.053Z,70.03
2023-07-07T23:56:19.178Z,70.25
2023-07-07T23:58:46.949Z,70.96
